sensor_id;sensor_type;location;lat;lon;timestamp;pressure;altitude;pressure_sealevel;temperature;humidity
38227;BME280;24026;49.446;8.576;2023-07-13T00:01:07;100464.41;;;26.93;34.53
38227;BME280;24026;49.446;8.576;2023-07-13T00:03:27;100466.81;;;26.94;34.28
38227;BME280;24026;49.446;8.576;2023-07-13T00:05:57;100465.50;;;26.88;34.38
38227;BME280;24026;49.446;8.576;2023-07-13T00:08:17;100469.00;;;26.89;34.33
38227;BME280;24026;49.446;8.576;2023-07-13T00:10:41;100460.03;;;26.88;34.22
38227;BME280;24026;49.446;8.576;2023-07-13T00:13:01;100461.97;;;26.88;34.06
38227;BME280;24026;49.446;8.576;2023-07-13T00:15:25;100468.91;;;26.85;34.14
38227;BME280;24026;49.446;8.576;2023-07-13T00:17:46;100475.84;;;26.83;34.25
38227;BME280;24026;49.446;8.576;2023-07-13T00:20:08;100474.63;;;26.80;34.03
38227;BME280;24026;49.446;8.576;2023-07-13T00:22:29;100478.13;;;26.80;34.06
38227;BME280;24026;49.446;8.576;2023-07-13T00:24:49;100480.88;;;26.80;34.10
38227;BME280;24026;49.446;8.576;2023-07-13T00:27:11;100480.88;;;26.80;34.38
38227;BME280;24026;49.446;8.576;2023-07-13T00:29:32;100484.84;;;26.83;34.03
38227;BME280;24026;49.446;8.576;2023-07-13T00:31:54;100480.16;;;26.84;34.17
38227;BME280;24026;49.446;8.576;2023-07-13T00:34:14;100470.41;;;26.83;33.96
38227;BME280;24026;49.446;8.576;2023-07-13T00:36:35;100473.13;;;26.83;33.82
38227;BME280;24026;49.446;8.576;2023-07-13T00:38:55;100476.53;;;26.79;33.76
38227;BME280;24026;49.446;8.576;2023-07-13T00:41:16;100468.38;;;26.79;33.98
38227;BME280;24026;49.446;8.576;2023-07-13T00:43:36;100473.38;;;26.77;34.06
38227;BME280;24026;49.446;8.576;2023-07-13T00:46:30;100463.88;;;26.71;33.96
38227;BME280;24026;49.446;8.576;2023-07-13T00:48:53;100471.69;;;26.73;33.95
38227;BME280;24026;49.446;8.576;2023-07-13T00:51:18;100475.59;;;26.72;34.06
38227;BME280;24026;49.446;8.576;2023-07-13T00:53:39;100470.81;;;26.69;33.56
38227;BME280;24026;49.446;8.576;2023-07-13T00:56:00;100474.69;;;26.68;34.01
38227;BME280;24026;49.446;8.576;2023-07-13T00:58:22;100464.47;;;26.65;33.59
38227;BME280;24026;49.446;8.576;2023-07-13T01:00:43;100465.94;;;26.62;33.44
38227;BME280;24026;49.446;8.576;2023-07-13T01:03:03;100472.09;;;26.59;33.74
38227;BME280;24026;49.446;8.576;2023-07-13T01:05:24;100466.53;;;26.55;33.68
38227;BME280;24026;49.446;8.576;2023-07-13T01:07:46;100470.75;;;26.53;34.03
38227;BME280;24026;49.446;8.576;2023-07-13T01:10:26;100471.47;;;26.50;33.58
38227;BME280;24026;49.446;8.576;2023-07-13T01:12:47;100466.69;;;26.47;33.71
38227;BME280;24026;49.446;8.576;2023-07-13T01:15:35;100475.22;;;26.45;33.70
38227;BME280;24026;49.446;8.576;2023-07-13T01:17:55;100468.97;;;26.44;33.90
38227;BME280;24026;49.446;8.576;2023-07-13T01:20:16;100465.00;;;26.42;34.15
38227;BME280;24026;49.446;8.576;2023-07-13T01:22:37;100472.41;;;26.41;33.91
38227;BME280;24026;49.446;8.576;2023-07-13T01:24:57;100478.63;;;26.42;34.02
38227;BME280;24026;49.446;8.576;2023-07-13T01:27:22;100480.56;;;26.41;33.61
38227;BME280;24026;49.446;8.576;2023-07-13T01:29:45;100485.56;;;26.39;33.72
38227;BME280;24026;49.446;8.576;2023-07-13T01:32:13;100471.16;;;26.39;33.77
38227;BME280;24026;49.446;8.576;2023-07-13T01:34:34;100476.94;;;26.37;33.85
38227;BME280;24026;49.446;8.576;2023-07-13T01:36:54;100479.66;;;26.37;33.63
38227;BME280;24026;49.446;8.576;2023-07-13T01:39:15;100475.81;;;26.38;33.87
38227;BME280;24026;49.446;8.576;2023-07-13T01:41:37;100483.28;;;26.41;34.03
38227;BME280;24026;49.446;8.576;2023-07-13T01:43:57;100480.22;;;26.43;33.80
38227;BME280;24026;49.446;8.576;2023-07-13T01:48:38;100481.88;;;26.48;33.63
38227;BME280;24026;49.446;8.576;2023-07-13T01:50:58;100486.22;;;26.49;33.77
38227;BME280;24026;49.446;8.576;2023-07-13T01:53:19;100486.66;;;26.51;33.83
38227;BME280;24026;49.446;8.576;2023-07-13T01:55:39;100494.47;;;26.52;33.60
38227;BME280;24026;49.446;8.576;2023-07-13T01:58:00;100503.09;;;26.54;33.94
38227;BME280;24026;49.446;8.576;2023-07-13T02:00:21;100503.91;;;26.55;33.76
38227;BME280;24026;49.446;8.576;2023-07-13T02:02:41;100497.28;;;26.56;33.79
38227;BME280;24026;49.446;8.576;2023-07-13T02:05:02;100502.75;;;26.56;33.65
38227;BME280;24026;49.446;8.576;2023-07-13T02:07:23;100509.00;;;26.56;33.76
38227;BME280;24026;49.446;8.576;2023-07-13T02:09:44;100509.78;;;26.57;33.68
38227;BME280;24026;49.446;8.576;2023-07-13T02:12:04;100501.63;;;26.57;33.79
38227;BME280;24026;49.446;8.576;2023-07-13T02:14:25;100505.13;;;26.57;33.96
38227;BME280;24026;49.446;8.576;2023-07-13T02:16:45;100515.25;;;26.57;33.69
38227;BME280;24026;49.446;8.576;2023-07-13T02:19:06;100512.53;;;26.57;34.26
38227;BME280;24026;49.446;8.576;2023-07-13T02:21:26;100507.41;;;26.55;33.52
38227;BME280;24026;49.446;8.576;2023-07-13T02:23:47;100519.09;;;26.56;33.86
38227;BME280;24026;49.446;8.576;2023-07-13T02:26:07;100507.75;;;26.54;33.93
38227;BME280;24026;49.446;8.576;2023-07-13T02:28:28;100510.81;;;26.52;33.98
38227;BME280;24026;49.446;8.576;2023-07-13T02:30:48;100508.44;;;26.51;34.08
38227;BME280;24026;49.446;8.576;2023-07-13T02:33:09;100504.84;;;26.47;33.97
38227;BME280;24026;49.446;8.576;2023-07-13T02:35:29;100505.53;;;26.43;34.16
38227;BME280;24026;49.446;8.576;2023-07-13T02:37:49;100500.78;;;26.40;33.99
38227;BME280;24026;49.446;8.576;2023-07-13T02:40:10;100498.28;;;26.35;33.90
38227;BME280;24026;49.446;8.576;2023-07-13T02:42:30;100500.81;;;26.28;33.86
38227;BME280;24026;49.446;8.576;2023-07-13T02:44:51;100510.47;;;26.25;33.85
38227;BME280;24026;49.446;8.576;2023-07-13T02:47:11;100512.41;;;26.25;34.00
38227;BME280;24026;49.446;8.576;2023-07-13T02:49:33;100507.75;;;26.25;34.27
38227;BME280;24026;49.446;8.576;2023-07-13T02:51:53;100508.53;;;26.26;33.97
38227;BME280;24026;49.446;8.576;2023-07-13T02:54:13;100517.94;;;26.29;34.25
38227;BME280;24026;49.446;8.576;2023-07-13T02:56:34;100514.09;;;26.30;34.25
38227;BME280;24026;49.446;8.576;2023-07-13T02:58:55;100511.03;;;26.31;33.85
38227;BME280;24026;49.446;8.576;2023-07-13T03:01:15;100514.53;;;26.32;34.22
38227;BME280;24026;49.446;8.576;2023-07-13T03:03:38;100512.59;;;26.32;34.21
38227;BME280;24026;49.446;8.576;2023-07-13T03:06:00;100514.97;;;26.34;34.02
38227;BME280;24026;49.446;8.576;2023-07-13T03:08:22;100521.22;;;26.34;34.07
38227;BME280;24026;49.446;8.576;2023-07-13T03:10:42;100524.75;;;26.35;33.93
38227;BME280;24026;49.446;8.576;2023-07-13T03:13:03;100521.22;;;26.34;34.21
38227;BME280;24026;49.446;8.576;2023-07-13T03:15:23;100515.75;;;26.34;34.18
38227;BME280;24026;49.446;8.576;2023-07-13T03:17:43;100517.69;;;26.34;34.07
38227;BME280;24026;49.446;8.576;2023-07-13T03:20:04;100511.91;;;26.35;34.17
38227;BME280;24026;49.446;8.576;2023-07-13T03:22:25;100515.75;;;26.34;34.24
38227;BME280;24026;49.446;8.576;2023-07-13T03:24:45;100513.84;;;26.35;34.04
38227;BME280;24026;49.446;8.576;2023-07-13T03:27:06;100509.53;;;26.34;34.11
38227;BME280;24026;49.446;8.576;2023-07-13T03:29:27;100520.78;;;26.32;34.47
38227;BME280;24026;49.446;8.576;2023-07-13T03:31:47;100516.09;;;26.33;34.35
38227;BME280;24026;49.446;8.576;2023-07-13T03:34:07;100518.03;;;26.32;34.05
38227;BME280;24026;49.446;8.576;2023-07-13T03:36:29;100520.00;;;26.32;34.05
38227;BME280;24026;49.446;8.576;2023-07-13T03:38:55;100514.88;;;26.30;34.21
38227;BME280;24026;49.446;8.576;2023-07-13T03:41:16;100517.59;;;26.30;34.49
38227;BME280;24026;49.446;8.576;2023-07-13T03:43:37;100524.19;;;26.29;34.43
38227;BME280;24026;49.446;8.576;2023-07-13T03:45:57;100523.41;;;26.29;34.44
38227;BME280;24026;49.446;8.576;2023-07-13T03:48:18;100528.06;;;26.28;34.15
38227;BME280;24026;49.446;8.576;2023-07-13T03:50:38;100526.47;;;26.27;34.64
38227;BME280;24026;49.446;8.576;2023-07-13T03:52:59;100535.41;;;26.28;34.36
38227;BME280;24026;49.446;8.576;2023-07-13T03:55:20;100527.59;;;26.26;34.35
38227;BME280;24026;49.446;8.576;2023-07-13T03:57:40;100528.75;;;26.25;34.63
38227;BME280;24026;49.446;8.576;2023-07-13T04:00:01;100534.53;;;26.23;34.46
38227;BME280;24026;49.446;8.576;2023-07-13T04:02:21;100537.25;;;26.23;34.62
38227;BME280;24026;49.446;8.576;2023-07-13T04:04:41;100534.09;;;26.21;34.70
38227;BME280;24026;49.446;8.576;2023-07-13T04:07:02;100540.31;;;26.22;34.33
38227;BME280;24026;49.446;8.576;2023-07-13T04:09:23;100532.16;;;26.22;34.67
38227;BME280;24026;49.446;8.576;2023-07-13T04:11:43;100537.94;;;26.20;34.86
38227;BME280;24026;49.446;8.576;2023-07-13T04:14:04;100542.59;;;26.20;34.64
38227;BME280;24026;49.446;8.576;2023-07-13T04:16:25;100545.31;;;26.20;34.52
38227;BME280;24026;49.446;8.576;2023-07-13T04:18:46;100541.78;;;26.19;34.92
38227;BME280;24026;49.446;8.576;2023-07-13T04:21:08;100551.91;;;26.19;34.73
38227;BME280;24026;49.446;8.576;2023-07-13T04:23:29;100546.78;;;26.17;34.63
38227;BME280;24026;49.446;8.576;2023-07-13T04:25:52;100553.84;;;26.18;34.56
38227;BME280;24026;49.446;8.576;2023-07-13T04:28:13;100556.91;;;26.17;34.68
38227;BME280;24026;49.446;8.576;2023-07-13T04:30:33;100559.97;;;26.15;34.78
38227;BME280;24026;49.446;8.576;2023-07-13T04:32:54;100561.91;;;26.15;35.11
38227;BME280;24026;49.446;8.576;2023-07-13T04:35:14;100560.31;;;26.14;34.82
38227;BME280;24026;49.446;8.576;2023-07-13T04:37:34;100561.44;;;26.13;34.69
38227;BME280;24026;49.446;8.576;2023-07-13T04:39:55;100559.84;;;26.12;34.77
38227;BME280;24026;49.446;8.576;2023-07-13T04:42:16;100556.34;;;26.11;34.97
38227;BME280;24026;49.446;8.576;2023-07-13T04:44:36;100559.84;;;26.12;35.25
38227;BME280;24026;49.446;8.576;2023-07-13T04:46:57;100560.97;;;26.11;35.03
38227;BME280;24026;49.446;8.576;2023-07-13T04:49:17;100557.47;;;26.10;35.13
38227;BME280;24026;49.446;8.576;2023-07-13T04:51:39;100560.97;;;26.11;35.18
38227;BME280;24026;49.446;8.576;2023-07-13T04:53:59;100562.94;;;26.10;34.90
38227;BME280;24026;49.446;8.576;2023-07-13T04:56:20;100563.72;;;26.11;35.32
38227;BME280;24026;49.446;8.576;2023-07-13T04:58:42;100564.88;;;26.10;35.17
38227;BME280;24026;49.446;8.576;2023-07-13T05:01:04;100568.38;;;26.10;34.98
38227;BME280;24026;49.446;8.576;2023-07-13T05:03:25;100571.44;;;26.09;35.30
38227;BME280;24026;49.446;8.576;2023-07-13T05:05:57;100569.38;;;26.05;35.16
38227;BME280;24026;49.446;8.576;2023-07-13T05:08:17;100571.31;;;26.05;35.24
38227;BME280;24026;49.446;8.576;2023-07-13T05:10:37;100568.94;;;26.03;35.11
38227;BME280;24026;49.446;8.576;2023-07-13T05:12:58;100567.69;;;26.01;34.95
38227;BME280;24026;49.446;8.576;2023-07-13T05:15:21;100575.06;;;26.00;34.68
38227;BME280;24026;49.446;8.576;2023-07-13T05:17:43;100574.63;;;25.98;34.81
38227;BME280;24026;49.446;8.576;2023-07-13T05:20:03;100578.31;;;25.94;34.77
38227;BME280;24026;49.446;8.576;2023-07-13T05:22:24;100583.31;;;25.92;35.36
38227;BME280;24026;49.446;8.576;2023-07-13T05:24:44;100580.94;;;25.90;34.96
38227;BME280;24026;49.446;8.576;2023-07-13T05:27:05;100587.50;;;25.89;35.21
38227;BME280;24026;49.446;8.576;2023-07-13T05:29:25;100587.84;;;25.87;34.98
38227;BME280;24026;49.446;8.576;2023-07-13T05:31:46;100592.41;;;25.83;35.17
38227;BME280;24026;49.446;8.576;2023-07-13T05:34:06;100593.84;;;25.81;35.50
38227;BME280;24026;49.446;8.576;2023-07-13T05:36:27;100590.34;;;25.80;35.53
38227;BME280;24026;49.446;8.576;2023-07-13T05:38:47;100586.72;;;25.76;35.72
38227;BME280;24026;49.446;8.576;2023-07-13T05:41:07;100589.78;;;25.75;35.94
38227;BME280;24026;49.446;8.576;2023-07-13T05:43:28;100594.75;;;25.73;36.17
38227;BME280;24026;49.446;8.576;2023-07-13T05:45:48;100585.38;;;25.70;36.09
38227;BME280;24026;49.446;8.576;2023-07-13T05:48:09;100592.75;;;25.69;35.81
38227;BME280;24026;49.446;8.576;2023-07-13T05:50:30;100598.03;;;25.66;35.97
38227;BME280;24026;49.446;8.576;2023-07-13T05:52:50;100596.47;;;25.65;36.22
38227;BME280;24026;49.446;8.576;2023-07-13T05:55:12;100603.84;;;25.64;36.28
38227;BME280;24026;49.446;8.576;2023-07-13T05:57:33;100603.38;;;25.62;36.37
38227;BME280;24026;49.446;8.576;2023-07-13T05:59:53;100607.56;;;25.60;36.22
38227;BME280;24026;49.446;8.576;2023-07-13T06:02:14;100607.47;;;25.56;36.28
38227;BME280;24026;49.446;8.576;2023-07-13T06:04:34;100613.91;;;25.51;36.15
38227;BME280;24026;49.446;8.576;2023-07-13T06:06:54;100614.91;;;25.47;36.12
38227;BME280;24026;49.446;8.576;2023-07-13T06:09:15;100624.06;;;25.42;35.92
38227;BME280;24026;49.446;8.576;2023-07-13T06:11:35;100626.69;;;25.39;36.09
38227;BME280;24026;49.446;8.576;2023-07-13T06:13:56;100623.16;;;25.38;36.44
38227;BME280;24026;49.446;8.576;2023-07-13T06:16:18;100631.78;;;25.40;36.22
38227;BME280;24026;49.446;8.576;2023-07-13T06:18:39;100633.38;;;25.41;36.00
38227;BME280;24026;49.446;8.576;2023-07-13T06:21:00;100632.56;;;25.41;36.03
38227;BME280;24026;49.446;8.576;2023-07-13T06:23:21;100639.28;;;25.43;35.73
38227;BME280;24026;49.446;8.576;2023-07-13T06:25:43;100643.94;;;25.43;35.86
38227;BME280;24026;49.446;8.576;2023-07-13T06:28:03;100646.66;;;25.43;35.89
38227;BME280;24026;49.446;8.576;2023-07-13T06:30:24;100651.75;;;25.44;35.62
38227;BME280;24026;49.446;8.576;2023-07-13T06:32:44;100650.94;;;25.44;35.46
38227;BME280;24026;49.446;8.576;2023-07-13T06:35:05;100646.78;;;25.46;35.23
38227;BME280;24026;49.446;8.576;2023-07-13T06:37:26;100659.56;;;25.46;35.00
38227;BME280;24026;49.446;8.576;2023-07-13T06:39:46;100661.50;;;25.45;35.15
38227;BME280;24026;49.446;8.576;2023-07-13T06:42:07;100663.09;;;25.46;35.31
38227;BME280;24026;49.446;8.576;2023-07-13T06:44:28;100662.75;;;25.48;35.22
38227;BME280;24026;49.446;8.576;2023-07-13T06:46:49;100674.09;;;25.50;35.01
38227;BME280;24026;49.446;8.576;2023-07-13T06:49:10;100670.25;;;25.51;35.03
38227;BME280;24026;49.446;8.576;2023-07-13T06:51:30;100671.50;;;25.54;35.14
38227;BME280;24026;49.446;8.576;2023-07-13T06:53:50;100665.72;;;25.55;34.87
38227;BME280;24026;49.446;8.576;2023-07-13T06:56:11;100670.50;;;25.58;34.66
38227;BME280;24026;49.446;8.576;2023-07-13T06:58:34;100668.22;;;25.60;34.64
38227;BME280;24026;49.446;8.576;2023-07-13T07:00:54;100672.53;;;25.61;34.52
38227;BME280;24026;49.446;8.576;2023-07-13T07:03:15;100671.41;;;25.62;34.49
38227;BME280;24026;49.446;8.576;2023-07-13T07:05:35;100678.44;;;25.63;34.35
38227;BME280;24026;49.446;8.576;2023-07-13T07:07:55;100677.31;;;25.64;34.65
38227;BME280;24026;49.446;8.576;2023-07-13T07:10:16;100671.50;;;25.66;34.22
38227;BME280;24026;49.446;8.576;2023-07-13T07:12:37;100680.94;;;25.68;34.62
38227;BME280;24026;49.446;8.576;2023-07-13T07:14:57;100678.66;;;25.70;34.01
38227;BME280;24026;49.446;8.576;2023-07-13T07:17:19;100682.66;;;25.73;34.06
38227;BME280;24026;49.446;8.576;2023-07-13T07:19:40;100685.84;;;25.75;34.04
38227;BME280;24026;49.446;8.576;2023-07-13T07:22:01;100685.50;;;25.77;34.07
38227;BME280;24026;49.446;8.576;2023-07-13T07:24:22;100687.56;;;25.80;33.72
38227;BME280;24026;49.446;8.576;2023-07-13T07:26:42;100687.22;;;25.81;33.63
38227;BME280;24026;49.446;8.576;2023-07-13T07:29:03;100688.78;;;25.82;33.43
38227;BME280;24026;49.446;8.576;2023-07-13T07:31:23;100685.72;;;25.84;33.34
38227;BME280;24026;49.446;8.576;2023-07-13T07:33:43;100688.13;;;25.85;32.83
38227;BME280;24026;49.446;8.576;2023-07-13T07:36:04;100676.09;;;25.86;32.80
38227;BME280;24026;49.446;8.576;2023-07-13T07:38:24;100686.66;;;25.88;33.01
38227;BME280;24026;49.446;8.576;2023-07-13T07:40:45;100683.59;;;25.89;32.93
38227;BME280;24026;49.446;8.576;2023-07-13T07:43:09;100688.72;;;25.91;32.42
38227;BME280;24026;49.446;8.576;2023-07-13T07:45:29;100684.16;;;25.83;32.76
38227;BME280;24026;49.446;8.576;2023-07-13T07:47:50;100685.16;;;25.91;32.98
38227;BME280;24026;49.446;8.576;2023-07-13T07:50:10;100677.13;;;25.94;32.89
38227;BME280;24026;49.446;8.576;2023-07-13T07:52:31;100685.78;;;25.96;32.41
38227;BME280;24026;49.446;8.576;2023-07-13T07:54:51;100691.69;;;25.98;32.44
38227;BME280;24026;49.446;8.576;2023-07-13T07:57:12;100691.34;;;26.00;32.60
38227;BME280;24026;49.446;8.576;2023-07-13T07:59:32;100690.19;;;26.01;32.65
38227;BME280;24026;49.446;8.576;2023-07-13T08:01:52;100683.63;;;26.02;32.27
38227;BME280;24026;49.446;8.576;2023-07-13T08:04:13;100693.06;;;26.04;32.50
38227;BME280;24026;49.446;8.576;2023-07-13T08:06:33;100696.25;;;26.06;32.34
38227;BME280;24026;49.446;8.576;2023-07-13T08:08:54;100688.53;;;26.09;32.41
38227;BME280;24026;49.446;8.576;2023-07-13T08:11:16;100683.84;;;26.09;32.24
38227;BME280;24026;49.446;8.576;2023-07-13T08:13:37;100686.25;;;26.11;32.64
38227;BME280;24026;49.446;8.576;2023-07-13T08:15:57;100682.06;;;26.13;32.69
38227;BME280;24026;49.446;8.576;2023-07-13T08:18:18;100681.72;;;26.15;32.54
38227;BME280;24026;49.446;8.576;2023-07-13T08:20:39;100690.34;;;26.17;32.34
38227;BME280;24026;49.446;8.576;2023-07-13T08:22:59;100684.56;;;26.18;32.61
38227;BME280;24026;49.446;8.576;2023-07-13T08:25:20;100679.56;;;26.20;32.77
38227;BME280;24026;49.446;8.576;2023-07-13T08:27:42;100672.66;;;26.23;32.64
38227;BME280;24026;49.446;8.576;2023-07-13T08:30:02;100674.09;;;26.20;32.65
38227;BME280;24026;49.446;8.576;2023-07-13T08:32:23;100678.44;;;26.21;32.71
38227;BME280;24026;49.446;8.576;2023-07-13T08:34:44;100673.88;;;26.25;32.31
38227;BME280;24026;49.446;8.576;2023-07-13T08:37:04;100682.16;;;26.29;32.53
38227;BME280;24026;49.446;8.576;2023-07-13T08:39:25;100686.16;;;26.32;32.44
38227;BME280;24026;49.446;8.576;2023-07-13T08:41:50;100679.19;;;26.34;32.12
38227;BME280;24026;49.446;8.576;2023-07-13T08:44:29;100682.41;;;26.36;31.96
38227;BME280;24026;49.446;8.576;2023-07-13T08:46:52;100676.25;;;26.39;32.23
38227;BME280;24026;49.446;8.576;2023-07-13T08:49:19;100670.94;;;26.43;32.23
38227;BME280;24026;49.446;8.576;2023-07-13T08:51:45;100681.13;;;26.46;31.96
38227;BME280;24026;49.446;8.576;2023-07-13T08:54:17;100683.50;;;26.48;32.24
38227;BME280;24026;49.446;8.576;2023-07-13T08:56:39;100682.38;;;26.49;32.12
38227;BME280;24026;49.446;8.576;2023-07-13T08:59:11;100676.94;;;26.49;31.78
38227;BME280;24026;49.446;8.576;2023-07-13T09:02:00;100672.59;;;26.48;32.06
38227;BME280;24026;49.446;8.576;2023-07-13T09:04:34;100676.59;;;26.50;31.98
38227;BME280;24026;49.446;8.576;2023-07-13T09:12:03;100678.06;;;26.60;32.01
38227;BME280;24026;49.446;8.576;2023-07-13T09:14:45;100679.75;;;26.65;31.58
38227;BME280;24026;49.446;8.576;2023-07-13T09:17:14;100671.72;;;26.68;31.56
38227;BME280;24026;49.446;8.576;2023-07-13T09:19:37;100664.78;;;26.71;31.71
38227;BME280;24026;49.446;8.576;2023-07-13T09:21:59;100663.31;;;26.73;31.71
38227;BME280;24026;49.446;8.576;2023-07-13T09:24:44;100669.53;;;26.74;31.71
38227;BME280;24026;49.446;8.576;2023-07-13T09:27:19;100667.59;;;26.74;31.75
38227;BME280;24026;49.446;8.576;2023-07-13T09:29:46;100667.69;;;26.78;31.59
38227;BME280;24026;49.446;8.576;2023-07-13T09:32:09;100668.50;;;26.78;31.45
38227;BME280;24026;49.446;8.576;2023-07-13T09:34:32;100673.28;;;26.82;31.41
38227;BME280;24026;49.446;8.576;2023-07-13T09:36:54;100671.34;;;26.82;31.58
38227;BME280;24026;49.446;8.576;2023-07-13T09:39:36;100678.38;;;26.83;31.45
38227;BME280;24026;49.446;8.576;2023-07-13T09:44:49;100667.00;;;26.81;31.52
38227;BME280;24026;49.446;8.576;2023-07-13T09:50:04;100668.94;;;26.80;31.94
38227;BME280;24026;49.446;8.576;2023-07-13T09:52:27;100660.88;;;26.84;31.58
38227;BME280;24026;49.446;8.576;2023-07-13T09:54:50;100660.53;;;26.86;31.82
38227;BME280;24026;49.446;8.576;2023-07-13T09:57:17;100663.69;;;26.88;31.74
38227;BME280;24026;49.446;8.576;2023-07-13T09:59:43;100666.91;;;26.90;31.39
38227;BME280;24026;49.446;8.576;2023-07-13T10:02:24;100665.19;;;26.85;31.51
38227;BME280;24026;49.446;8.576;2023-07-13T10:04:45;100665.63;;;26.87;31.54
38227;BME280;24026;49.446;8.576;2023-07-13T10:07:11;100667.25;;;26.88;31.84
38227;BME280;24026;49.446;8.576;2023-07-13T10:09:33;100663.25;;;26.86;31.74
38227;BME280;24026;49.446;8.576;2023-07-13T10:11:54;100664.03;;;26.86;31.45
38227;BME280;24026;49.446;8.576;2023-07-13T10:14:17;100660.19;;;26.87;31.57
38227;BME280;24026;49.446;8.576;2023-07-13T10:16:38;100664.28;;;26.81;31.69
38227;BME280;24026;49.446;8.576;2023-07-13T10:19:03;100668.59;;;26.82;31.89
38227;BME280;24026;49.446;8.576;2023-07-13T10:21:29;100658.50;;;26.83;32.06
38227;BME280;24026;49.446;8.576;2023-07-13T10:24:03;100668.72;;;26.86;31.74
38227;BME280;24026;49.446;8.576;2023-07-13T10:26:30;100659.75;;;26.85;31.87
38227;BME280;24026;49.446;8.576;2023-07-13T10:28:54;100658.25;;;26.88;31.66
38227;BME280;24026;49.446;8.576;2023-07-13T10:31:17;100662.56;;;26.89;31.74
38227;BME280;24026;49.446;8.576;2023-07-13T10:33:38;100666.06;;;26.89;31.52
38227;BME280;24026;49.446;8.576;2023-07-13T10:36:15;100662.91;;;26.87;31.61
38227;BME280;24026;49.446;8.576;2023-07-13T10:38:38;100661.44;;;26.90;31.33
38227;BME280;24026;49.446;8.576;2023-07-13T10:41:04;100663.00;;;26.91;31.74
38227;BME280;24026;49.446;8.576;2023-07-13T10:43:35;100659.59;;;26.94;31.08
38227;BME280;24026;49.446;8.576;2023-07-13T10:46:00;100657.66;;;26.94;31.09
38227;BME280;24026;49.446;8.576;2023-07-13T10:48:24;100660.03;;;26.96;30.95
38227;BME280;24026;49.446;8.576;2023-07-13T10:50:52;100655.03;;;26.98;30.88
38227;BME280;24026;49.446;8.576;2023-07-13T10:53:28;100665.06;;;26.94;30.75
38227;BME280;24026;49.446;8.576;2023-07-13T10:58:29;100666.75;;;26.86;30.65
38227;BME280;24026;49.446;8.576;2023-07-13T11:01:11;100659.06;;;26.88;30.37
38227;BME280;24026;49.446;8.576;2023-07-13T11:03:54;100653.69;;;26.92;30.01
38227;BME280;24026;49.446;8.576;2023-07-13T11:18:37;100653.75;;;27.08;28.86
38227;BME280;24026;49.446;8.576;2023-07-13T11:21:13;100653.31;;;27.06;29.07
38227;BME280;24026;49.446;8.576;2023-07-13T11:23:42;100654.09;;;27.06;28.89
38227;BME280;24026;49.446;8.576;2023-07-13T11:26:03;100649.88;;;27.09;28.95
38227;BME280;24026;49.446;8.576;2023-07-13T11:28:25;100655.00;;;27.10;29.09
38227;BME280;24026;49.446;8.576;2023-07-13T11:33:23;100640.66;;;27.13;28.79
38227;BME280;24026;49.446;8.576;2023-07-13T11:38:38;100635.31;;;27.17;28.64
38227;BME280;24026;49.446;8.576;2023-07-13T11:41:02;100633.00;;;27.19;28.31
38227;BME280;24026;49.446;8.576;2023-07-13T11:43:23;100644.03;;;27.23;28.30
38227;BME280;24026;49.446;8.576;2023-07-13T11:45:44;100639.47;;;27.27;28.03
38227;BME280;24026;49.446;8.576;2023-07-13T11:48:05;100632.19;;;27.31;27.92
38227;BME280;24026;49.446;8.576;2023-07-13T11:50:26;100642.41;;;27.34;27.47
38227;BME280;24026;49.446;8.576;2023-07-13T11:52:48;100631.16;;;27.35;27.63
38227;BME280;24026;49.446;8.576;2023-07-13T11:55:18;100635.47;;;27.37;27.83
38227;BME280;24026;49.446;8.576;2023-07-13T11:57:45;100632.84;;;27.40;27.82
38227;BME280;24026;49.446;8.576;2023-07-13T12:00:25;100640.56;;;27.38;27.84
38227;BME280;24026;49.446;8.576;2023-07-13T12:02:53;100643.75;;;27.40;27.82
38227;BME280;24026;49.446;8.576;2023-07-13T12:05:16;100639.88;;;27.41;27.73
38227;BME280;24026;49.446;8.576;2023-07-13T12:07:41;100637.13;;;27.41;27.45
38227;BME280;24026;49.446;8.576;2023-07-13T12:12:53;100640.66;;;27.42;27.34
38227;BME280;24026;49.446;8.576;2023-07-13T12:15:14;100637.22;;;27.45;27.31
38227;BME280;24026;49.446;8.576;2023-07-13T12:17:35;100638.47;;;27.47;27.30
38227;BME280;24026;49.446;8.576;2023-07-13T12:19:56;100647.44;;;27.48;27.28
38227;BME280;24026;49.446;8.576;2023-07-13T12:22:18;100650.25;;;27.51;26.77
38227;BME280;24026;49.446;8.576;2023-07-13T12:24:41;100644.00;;;27.51;26.90
38227;BME280;24026;49.446;8.576;2023-07-13T12:27:03;100646.41;;;27.52;26.62
38227;BME280;24026;49.446;8.576;2023-07-13T12:29:24;100640.94;;;27.52;26.50
38227;BME280;24026;49.446;8.576;2023-07-13T12:31:48;100641.72;;;27.53;26.94
38227;BME280;24026;49.446;8.576;2023-07-13T12:34:17;100644.09;;;27.54;26.80
38227;BME280;24026;49.446;8.576;2023-07-13T12:36:46;100645.34;;;27.57;26.37
38227;BME280;24026;49.446;8.576;2023-07-13T12:39:33;100644.09;;;27.54;26.28
38227;BME280;24026;49.446;8.576;2023-07-13T12:41:54;100642.97;;;27.56;26.43
38227;BME280;24026;49.446;8.576;2023-07-13T12:44:31;100633.66;;;27.57;26.12
38227;BME280;24026;49.446;8.576;2023-07-13T12:47:04;100644.91;;;27.55;26.53
38227;BME280;24026;49.446;8.576;2023-07-13T12:49:29;100650.47;;;27.59;26.51
38227;BME280;24026;49.446;8.576;2023-07-13T12:51:50;100652.91;;;27.48;26.68
38227;BME280;24026;49.446;8.576;2023-07-13T12:54:17;100655.72;;;27.51;26.80
38227;BME280;24026;49.446;8.576;2023-07-13T12:56:37;100657.31;;;27.52;26.50
38227;BME280;24026;49.446;8.576;2023-07-13T12:59:02;100667.44;;;27.52;26.56
38227;BME280;24026;49.446;8.576;2023-07-13T13:01:26;100663.91;;;27.51;26.75
38227;BME280;24026;49.446;8.576;2023-07-13T13:03:50;100660.38;;;27.51;26.94